createdAt,value
2023-01-19T00:02:05.750Z,5.58
2023-01-19T00:04:35.991Z,5.69
2023-01-19T00:07:08.899Z,5.86
2023-01-19T00:09:46.393Z,5.48
2023-01-19T00:12:16.197Z,5.62
2023-01-19T00:14:46.375Z,5.89
2023-01-19T00:17:16.665Z,5.84
2023-01-19T00:19:47.089Z,5.87
2023-01-19T00:22:19.369Z,5.98
2023-01-19T00:24:49.401Z,5.64
2023-01-19T00:27:19.614Z,5.93
2023-01-19T00:29:50.211Z,5.84
2023-01-19T00:32:20.621Z,5.76
2023-01-19T00:34:52.657Z,5.74
2023-01-19T00:37:24.374Z,5.92
2023-01-19T00:39:54.889Z,5.58
2023-01-19T00:42:44.676Z,5.55
2023-01-19T00:45:17.172Z,5.52
2023-01-19T00:47:48.492Z,5.68
2023-01-19T00:50:19.241Z,5.49
2023-01-19T00:52:51.162Z,5.42
2023-01-19T00:55:21.242Z,5.59
2023-01-19T00:57:51.829Z,5.69
2023-01-19T01:00:22.997Z,5.40
2023-01-19T01:02:54.411Z,5.75
2023-01-19T01:05:24.436Z,5.76
2023-01-19T01:07:56.467Z,5.93
2023-01-19T01:10:28.124Z,5.66
2023-01-19T01:12:59.587Z,5.56
2023-01-19T01:15:53.160Z,5.63
2023-01-19T01:18:23.927Z,5.60
2023-01-19T01:20:56.088Z,5.52
2023-01-19T01:23:28.161Z,5.44
2023-01-19T01:25:57.778Z,5.56
2023-01-19T01:28:28.408Z,5.69
2023-01-19T01:30:59.263Z,5.63
2023-01-19T01:33:41.302Z,5.56
2023-01-19T01:36:12.345Z,5.63
2023-01-19T01:38:43.785Z,5.87
2023-01-19T01:41:14.042Z,5.77
2023-01-19T01:43:50.635Z,5.52
2023-01-19T01:46:21.480Z,5.27
2023-01-19T01:48:56.201Z,5.13
2023-01-19T01:51:29.959Z,5.24
2023-01-19T01:54:12.122Z,5.02
2023-01-19T01:56:43.800Z,5.24
2023-01-19T01:59:26.600Z,5.35
2023-01-19T02:02:16.438Z,4.75
2023-01-19T02:04:50.166Z,5.27
2023-01-19T02:07:42.597Z,4.99
2023-01-19T02:10:33.083Z,4.96
2023-01-19T02:13:22.494Z,5.14
2023-01-19T02:15:56.783Z,5.15
2023-01-19T02:18:30.014Z,5.24
2023-01-19T02:21:09.121Z,5.24
2023-01-19T02:23:45.473Z,4.91
2023-01-19T02:26:18.213Z,5.06
2023-01-19T02:28:52.341Z,4.93
2023-01-19T02:31:22.484Z,4.40
2023-01-19T02:33:52.891Z,4.11
2023-01-19T02:36:26.791Z,4.58
2023-01-19T02:38:59.984Z,4.99
2023-01-19T02:41:34.595Z,4.95
2023-01-19T02:44:06.697Z,4.42
2023-01-19T02:46:36.830Z,4.79
2023-01-19T02:49:08.756Z,5.02
2023-01-19T02:51:38.803Z,4.77
2023-01-19T02:54:22.847Z,4.90
2023-01-19T02:57:35.041Z,5.18
2023-01-19T03:00:14.930Z,4.80
2023-01-19T03:02:54.905Z,5.05
2023-01-19T03:05:47.744Z,4.72
2023-01-19T03:08:23.769Z,5.18
2023-01-19T03:10:59.386Z,4.77
2023-01-19T03:13:35.566Z,5.00
2023-01-19T03:16:11.883Z,5.06
2023-01-19T03:18:44.096Z,4.29
2023-01-19T03:21:16.244Z,4.32
2023-01-19T03:23:48.257Z,4.72
2023-01-19T03:26:23.165Z,4.88
2023-01-19T03:28:55.289Z,4.78
2023-01-19T03:31:27.740Z,4.48
2023-01-19T03:34:00.122Z,4.90
2023-01-19T03:36:35.404Z,4.60
2023-01-19T03:39:06.761Z,4.79
2023-01-19T03:41:39.270Z,5.13
2023-01-19T03:44:10.027Z,4.91
2023-01-19T03:46:41.018Z,4.97
2023-01-19T03:49:10.995Z,5.06
2023-01-19T03:51:41.410Z,5.13
2023-01-19T03:54:13.000Z,4.94
2023-01-19T03:56:45.747Z,4.74
2023-01-19T03:59:17.934Z,4.81
2023-01-19T04:01:48.769Z,4.83
2023-01-19T04:04:19.864Z,5.20
2023-01-19T04:06:52.293Z,5.01
2023-01-19T04:09:25.083Z,5.02
2023-01-19T04:11:57.371Z,5.07
2023-01-19T04:14:27.298Z,4.94
2023-01-19T04:16:56.872Z,4.82
2023-01-19T04:19:26.977Z,4.83
2023-01-19T04:21:58.191Z,4.83
2023-01-19T04:24:28.927Z,4.88
2023-01-19T04:27:00.344Z,5.03
2023-01-19T04:29:31.378Z,4.87
2023-01-19T04:32:01.603Z,4.96
2023-01-19T04:34:31.509Z,4.82
2023-01-19T04:37:02.533Z,4.72
2023-01-19T04:39:33.962Z,4.59
2023-01-19T04:42:06.829Z,5.02
2023-01-19T04:44:37.411Z,4.78
2023-01-19T04:47:10.503Z,4.68
2023-01-19T04:49:41.462Z,5.13
2023-01-19T04:52:12.084Z,4.87
2023-01-19T04:54:42.441Z,4.67
2023-01-19T04:57:15.033Z,4.57
2023-01-19T04:59:45.614Z,4.60
2023-01-19T05:02:16.343Z,4.61
2023-01-19T05:04:47.024Z,4.72
2023-01-19T05:07:19.544Z,4.78
2023-01-19T05:09:52.849Z,4.63
2023-01-19T05:12:24.067Z,4.30
2023-01-19T05:14:54.842Z,4.31
2023-01-19T05:17:26.213Z,4.50
2023-01-19T05:19:56.200Z,4.49
2023-01-19T05:22:26.759Z,4.31
2023-01-19T05:24:58.594Z,4.38
2023-01-19T05:27:31.508Z,4.14
2023-01-19T05:30:01.961Z,4.25
2023-01-19T05:32:33.734Z,4.29
2023-01-19T05:35:03.558Z,4.16
2023-01-19T05:37:34.155Z,4.09
2023-01-19T05:40:04.595Z,4.17
2023-01-19T05:42:36.686Z,4.18
2023-01-19T05:45:07.839Z,4.14
2023-01-19T05:47:38.785Z,4.25
2023-01-19T05:50:18.632Z,4.43
2023-01-19T05:52:53.541Z,4.26
2023-01-19T05:55:24.065Z,4.45
2023-01-19T05:57:56.199Z,4.35
2023-01-19T06:00:28.247Z,4.34
2023-01-19T06:02:59.350Z,4.49
2023-01-19T06:05:29.898Z,4.31
2023-01-19T06:07:59.695Z,4.38
2023-01-19T06:10:30.059Z,4.32
2023-01-19T06:13:02.395Z,4.24
2023-01-19T06:15:33.043Z,4.38
2023-01-19T06:18:04.427Z,4.36
2023-01-19T06:20:35.001Z,4.15
2023-01-19T06:23:06.294Z,4.28
2023-01-19T06:25:36.523Z,4.42
2023-01-19T06:28:08.353Z,4.47
2023-01-19T06:30:38.524Z,4.43
2023-01-19T06:33:08.657Z,4.36
2023-01-19T06:35:38.949Z,4.37
2023-01-19T06:38:09.411Z,4.41
2023-01-19T06:40:39.699Z,4.51
2023-01-19T06:43:11.738Z,4.50
2023-01-19T06:45:45.141Z,4.22
2023-01-19T06:48:15.439Z,4.39
2023-01-19T06:50:49.817Z,4.29
2023-01-19T06:53:22.879Z,4.42
2023-01-19T06:55:53.984Z,4.37
2023-01-19T06:58:26.744Z,4.58
2023-01-19T07:00:56.762Z,4.45
2023-01-19T07:03:26.673Z,4.39
2023-01-19T07:05:57.433Z,4.70
2023-01-19T07:08:28.623Z,4.70
2023-01-19T07:11:24.816Z,4.75
2023-01-19T07:13:56.673Z,4.62
2023-01-19T07:16:27.311Z,4.50
2023-01-19T07:18:58.032Z,4.36
2023-01-19T07:21:29.353Z,4.69
2023-01-19T07:23:59.653Z,4.53
2023-01-19T07:26:31.399Z,4.39
2023-01-19T07:29:03.147Z,4.43
2023-01-19T07:31:33.945Z,4.92
2023-01-19T07:34:04.339Z,4.76
2023-01-19T07:36:34.389Z,4.83
2023-01-19T07:39:05.359Z,4.83
2023-01-19T07:41:36.605Z,4.69
2023-01-19T07:44:08.902Z,4.76
2023-01-19T07:46:39.351Z,4.75
2023-01-19T07:49:10.285Z,4.81
2023-01-19T07:51:40.808Z,4.88
2023-01-19T07:54:11.320Z,4.68
2023-01-19T07:56:42.044Z,4.72
2023-01-19T07:59:15.009Z,4.57
2023-01-19T08:01:45.987Z,4.65
2023-01-19T08:04:16.571Z,4.63
2023-01-19T08:06:47.775Z,5.00
2023-01-19T08:09:19.487Z,4.95
2023-01-19T08:11:49.875Z,4.96
2023-01-19T08:14:22.266Z,4.87
2023-01-19T08:16:52.104Z,4.87
2023-01-19T08:19:22.721Z,5.13
2023-01-19T08:21:52.948Z,5.07
2023-01-19T08:24:26.515Z,5.07
2023-01-19T08:27:01.836Z,4.99
2023-01-19T08:29:34.408Z,4.79
2023-01-19T08:32:05.549Z,4.98
2023-01-19T08:34:36.816Z,5.17
2023-01-19T08:37:06.673Z,4.98
2023-01-19T08:39:36.845Z,4.99
2023-01-19T08:42:07.332Z,5.10
2023-01-19T08:44:46.791Z,4.98
2023-01-19T08:47:27.244Z,4.79
2023-01-19T08:49:57.708Z,4.90
2023-01-19T08:52:29.943Z,5.04
2023-01-19T08:55:01.391Z,4.94
2023-01-19T08:57:31.755Z,5.01
2023-01-19T09:00:04.639Z,5.07
2023-01-19T09:02:36.193Z,5.14
2023-01-19T09:05:08.398Z,5.23
2023-01-19T09:07:38.835Z,5.30
2023-01-19T09:10:11.082Z,5.44
2023-01-19T09:12:41.803Z,5.26
2023-01-19T09:15:16.005Z,5.36
2023-01-19T09:17:46.192Z,5.24
2023-01-19T09:20:16.903Z,5.34
2023-01-19T09:22:47.841Z,5.20
2023-01-19T09:25:17.716Z,5.34
2023-01-19T09:27:47.866Z,5.41
2023-01-19T09:30:21.050Z,5.34
2023-01-19T09:32:51.832Z,5.32
2023-01-19T09:35:21.720Z,5.41
2023-01-19T09:37:52.124Z,5.54
2023-01-19T09:40:23.450Z,5.46
2023-01-19T09:43:00.178Z,5.52
2023-01-19T09:45:37.131Z,5.25
2023-01-19T09:48:12.340Z,5.33
2023-01-19T09:50:47.399Z,5.31
2023-01-19T09:53:23.923Z,5.45
2023-01-19T09:55:54.720Z,5.62
2023-01-19T09:58:26.078Z,5.59
2023-01-19T10:01:00.748Z,5.50
2023-01-19T10:03:31.779Z,5.59
2023-01-19T10:06:04.168Z,5.46
2023-01-19T10:08:41.086Z,5.87
2023-01-19T10:11:23.223Z,5.76
2023-01-19T10:13:54.488Z,5.41
2023-01-19T10:16:32.223Z,5.54
2023-01-19T10:19:05.125Z,5.23
2023-01-19T10:21:39.409Z,5.45
2023-01-19T10:24:18.327Z,5.55
2023-01-19T10:26:51.951Z,5.49
2023-01-19T10:29:26.360Z,5.40
2023-01-19T10:32:07.117Z,5.52
2023-01-19T10:34:38.088Z,5.62
2023-01-19T10:37:19.216Z,5.84
2023-01-19T10:39:56.178Z,5.64
2023-01-19T10:42:28.774Z,5.71
2023-01-19T10:44:58.965Z,5.84
2023-01-19T10:47:35.762Z,5.71
2023-01-19T10:50:24.854Z,5.72
2023-01-19T10:52:55.752Z,5.61
2023-01-19T10:55:30.589Z,5.84
2023-01-19T10:58:02.374Z,5.79
2023-01-19T11:00:38.556Z,5.63
2023-01-19T11:03:25.614Z,5.72
2023-01-19T11:05:55.715Z,5.72
2023-01-19T11:08:30.540Z,5.72
2023-01-19T11:11:04.893Z,5.60
2023-01-19T11:13:36.234Z,5.36
2023-01-19T11:16:11.580Z,5.27
2023-01-19T11:18:45.711Z,5.46
2023-01-19T11:21:17.834Z,5.34
2023-01-19T11:23:51.670Z,5.42
2023-01-19T11:26:30.243Z,5.53
2023-01-19T11:29:01.400Z,5.31
2023-01-19T11:31:35.610Z,5.32
2023-01-19T11:34:23.598Z,5.44
2023-01-19T11:37:00.709Z,5.41
2023-01-19T11:39:33.369Z,5.38
2023-01-19T11:42:05.308Z,5.26
2023-01-19T11:44:37.505Z,5.43
2023-01-19T11:47:13.577Z,5.49
2023-01-19T11:49:48.375Z,5.49
2023-01-19T11:52:23.713Z,5.40
2023-01-19T11:54:58.004Z,5.47
2023-01-19T11:57:29.250Z,5.28
2023-01-19T12:00:03.870Z,5.03
2023-01-19T12:02:47.239Z,4.93
2023-01-19T12:05:22.631Z,4.95
2023-01-19T12:07:55.140Z,5.22
2023-01-19T12:10:29.404Z,5.10
2023-01-19T12:13:00.342Z,5.05
2023-01-19T12:15:35.128Z,5.15
2023-01-19T12:18:07.149Z,5.12
2023-01-19T12:20:41.320Z,4.80
2023-01-19T12:23:20.401Z,4.98
2023-01-19T12:26:00.956Z,5.08
2023-01-19T12:28:34.311Z,5.31
2023-01-19T12:31:05.372Z,5.38
2023-01-19T12:33:38.020Z,5.30
2023-01-19T12:39:07.947Z,5.46
2023-01-19T12:41:39.849Z,5.18
2023-01-19T12:44:28.203Z,5.11
2023-01-19T12:47:03.697Z,5.19
2023-01-19T12:49:37.572Z,5.10
2023-01-19T12:52:22.748Z,5.42
2023-01-19T12:55:04.246Z,5.18
2023-01-19T12:57:37.215Z,5.35
2023-01-19T13:00:12.909Z,5.29
2023-01-19T13:02:47.588Z,5.45
2023-01-19T13:05:40.960Z,5.23
2023-01-19T13:08:35.932Z,5.23
2023-01-19T13:11:24.319Z,5.03
2023-01-19T13:14:31.744Z,4.83
2023-01-19T13:17:08.247Z,5.15
2023-01-19T13:20:06.167Z,5.36
2023-01-19T13:23:21.208Z,4.93
2023-01-19T13:26:01.907Z,5.05
2023-01-19T13:28:53.042Z,5.12
2023-01-19T13:31:23.608Z,5.08
2023-01-19T13:33:55.049Z,4.94
2023-01-19T13:36:32.204Z,5.10
2023-01-19T13:39:07.478Z,5.00
2023-01-19T13:41:40.224Z,5.25
2023-01-19T13:44:15.832Z,5.26
2023-01-19T13:46:46.877Z,5.30
2023-01-19T13:49:21.003Z,5.11
2023-01-19T13:52:06.867Z,5.24
2023-01-19T13:54:37.185Z,5.03
2023-01-19T13:57:07.268Z,4.65
2023-01-19T13:59:38.738Z,4.84
2023-01-19T14:02:14.369Z,4.67
2023-01-19T14:04:44.985Z,4.72
2023-01-19T14:07:23.766Z,4.27
2023-01-19T14:10:04.934Z,4.73
2023-01-19T14:12:39.053Z,4.43
2023-01-19T14:15:16.006Z,4.33
2023-01-19T14:17:50.006Z,4.99
2023-01-19T14:20:30.869Z,5.18
2023-01-19T14:23:00.604Z,4.09
2023-01-19T14:25:32.995Z,4.83
2023-01-19T14:28:28.362Z,4.02
2023-01-19T14:31:03.029Z,4.83
2023-01-19T14:33:43.908Z,4.89
2023-01-19T14:36:27.320Z,4.68
2023-01-19T14:39:00.702Z,4.61
2023-01-19T14:41:35.743Z,4.76
2023-01-19T14:44:11.873Z,4.60
2023-01-19T14:46:48.417Z,4.12
2023-01-19T14:49:24.315Z,3.82
2023-01-19T14:51:56.309Z,4.19
2023-01-19T14:54:32.828Z,4.04
2023-01-19T14:57:02.992Z,4.56
2023-01-19T14:59:34.029Z,4.40
2023-01-19T15:02:05.490Z,4.62
2023-01-19T15:04:35.520Z,3.84
2023-01-19T15:07:05.552Z,4.43
2023-01-19T15:09:35.285Z,4.70
2023-01-19T15:12:04.833Z,4.58
2023-01-19T15:14:34.820Z,4.72
2023-01-19T15:17:07.779Z,4.79
2023-01-19T15:19:37.509Z,4.94
2023-01-19T15:22:15.391Z,4.65
2023-01-19T15:24:45.982Z,4.38
2023-01-19T15:27:16.872Z,4.57
2023-01-19T15:29:47.932Z,4.00
2023-01-19T15:32:20.525Z,4.23
2023-01-19T15:34:50.975Z,4.63
2023-01-19T15:37:20.772Z,4.33
2023-01-19T15:39:50.632Z,4.60
2023-01-19T15:42:20.756Z,4.60
2023-01-19T15:44:50.132Z,4.89
2023-01-19T15:47:22.005Z,4.38
2023-01-19T15:49:51.814Z,4.33
2023-01-19T15:52:21.652Z,4.57
2023-01-19T15:54:51.062Z,4.33
2023-01-19T15:57:22.238Z,4.20
2023-01-19T15:59:52.200Z,4.56
2023-01-19T16:02:23.611Z,4.24
2023-01-19T16:04:53.163Z,4.35
2023-01-19T16:07:23.390Z,4.44
2023-01-19T16:09:54.204Z,3.57
2023-01-19T16:12:24.469Z,4.34
2023-01-19T16:14:54.217Z,4.43
2023-01-19T16:17:25.833Z,4.24
2023-01-19T16:19:56.099Z,4.62
2023-01-19T16:22:26.797Z,4.29
2023-01-19T16:24:58.477Z,4.37
2023-01-19T16:27:29.269Z,3.71
2023-01-19T16:30:05.131Z,3.74
2023-01-19T16:32:37.069Z,4.35
2023-01-19T16:35:08.347Z,4.52
2023-01-19T16:37:39.976Z,4.07
2023-01-19T16:40:11.404Z,4.57
2023-01-19T16:42:42.537Z,4.38
2023-01-19T16:45:12.346Z,4.29
2023-01-19T16:47:47.263Z,3.64
2023-01-19T16:50:17.703Z,3.56
2023-01-19T16:52:50.824Z,3.81
2023-01-19T16:55:20.908Z,3.28
2023-01-19T16:57:50.608Z,3.85
2023-01-19T17:00:21.697Z,3.29
2023-01-19T17:02:54.123Z,3.32
2023-01-19T17:05:24.560Z,4.09
2023-01-19T17:07:55.629Z,3.61
2023-01-19T17:10:25.859Z,4.38
2023-01-19T17:12:56.200Z,4.41
2023-01-19T17:15:26.512Z,4.76
2023-01-19T17:17:59.553Z,4.10
2023-01-19T17:20:29.943Z,3.80
2023-01-19T17:23:00.663Z,3.13
2023-01-19T17:25:30.821Z,3.13
2023-01-19T17:28:01.918Z,3.66
2023-01-19T17:30:31.754Z,3.67
2023-01-19T17:33:03.248Z,4.04
2023-01-19T17:35:35.128Z,4.47
2023-01-19T17:38:05.300Z,4.04
2023-01-19T17:40:35.988Z,4.48
2023-01-19T17:43:05.954Z,4.61
2023-01-19T17:45:37.528Z,4.34
2023-01-19T17:48:10.794Z,4.59
2023-01-19T17:50:40.386Z,3.76
2023-01-19T17:53:10.904Z,3.99
2023-01-19T17:55:41.599Z,4.57
2023-01-19T17:58:11.628Z,4.35
2023-01-19T18:00:41.668Z,4.02
2023-01-19T18:03:13.170Z,4.00
2023-01-19T18:05:43.451Z,3.44
2023-01-19T18:08:13.540Z,3.93
2023-01-19T18:10:44.192Z,3.93
2023-01-19T18:13:14.072Z,4.25
2023-01-19T18:15:44.617Z,3.99
2023-01-19T18:18:16.170Z,3.83
2023-01-19T18:20:46.345Z,3.75
2023-01-19T18:23:16.692Z,3.70
2023-01-19T18:25:46.884Z,3.33
2023-01-19T18:28:16.958Z,3.59
2023-01-19T18:30:47.334Z,3.15
2023-01-19T18:33:19.103Z,3.51
2023-01-19T18:35:49.091Z,3.25
2023-01-19T18:38:19.360Z,3.51
2023-01-19T18:40:48.933Z,3.62
2023-01-19T18:43:19.365Z,3.65
2023-01-19T18:45:50.170Z,3.55
2023-01-19T18:48:21.698Z,3.26
2023-01-19T18:50:51.700Z,3.43
2023-01-19T18:53:21.916Z,3.52
2023-01-19T18:55:53.400Z,3.79
2023-01-19T18:58:24.057Z,3.12
2023-01-19T19:00:54.371Z,3.36
2023-01-19T19:03:26.066Z,3.67
2023-01-19T19:05:56.111Z,3.76
2023-01-19T19:08:26.833Z,3.79
2023-01-19T19:10:57.799Z,3.86
2023-01-19T19:13:28.361Z,3.79
2023-01-19T19:16:06.413Z,3.94
2023-01-19T19:18:39.685Z,4.06
2023-01-19T19:21:11.561Z,3.90
2023-01-19T19:23:41.375Z,3.52
2023-01-19T19:26:13.853Z,3.49
2023-01-19T19:28:44.061Z,3.57
2023-01-19T19:31:16.986Z,3.63
2023-01-19T19:33:51.633Z,3.44
2023-01-19T19:36:23.761Z,3.68
2023-01-19T19:38:53.949Z,3.91
2023-01-19T19:41:27.352Z,3.75
2023-01-19T19:43:58.333Z,3.74
2023-01-19T19:46:29.749Z,3.87
2023-01-19T19:49:01.669Z,4.02
2023-01-19T19:51:32.364Z,3.70
2023-01-19T19:54:02.899Z,3.63
2023-01-19T19:56:36.416Z,3.90
2023-01-19T19:59:06.637Z,3.64
2023-01-19T20:01:37.010Z,3.44
2023-01-19T20:04:12.412Z,3.47
2023-01-19T20:06:46.348Z,3.21
2023-01-19T20:09:16.228Z,3.37
2023-01-19T20:11:49.386Z,3.70
2023-01-19T20:14:19.608Z,4.09
2023-01-19T20:16:49.955Z,3.89
2023-01-19T20:19:22.067Z,4.13
2023-01-19T20:21:52.418Z,4.35
2023-01-19T20:24:22.966Z,4.47
2023-01-19T20:26:55.293Z,4.44
2023-01-19T20:29:25.843Z,4.18
2023-01-19T20:31:57.837Z,3.92
2023-01-19T20:34:33.330Z,4.08
2023-01-19T20:37:05.268Z,3.87
2023-01-19T20:39:37.346Z,4.08
2023-01-19T20:42:11.298Z,4.37
2023-01-19T20:44:42.002Z,4.04
2023-01-19T20:47:12.788Z,3.31
2023-01-19T20:49:44.646Z,4.10
2023-01-19T20:52:15.579Z,4.12
2023-01-19T20:54:45.628Z,4.11
2023-01-19T20:57:15.753Z,4.00
2023-01-19T20:59:46.847Z,4.04
2023-01-19T21:02:17.962Z,3.87
2023-01-19T21:04:51.074Z,3.32
2023-01-19T21:07:21.095Z,3.35
2023-01-19T21:09:51.104Z,3.26
2023-01-19T21:12:23.444Z,3.57
2023-01-19T21:14:54.128Z,4.12
2023-01-19T21:17:24.614Z,4.09
2023-01-19T21:19:55.617Z,3.88
2023-01-19T21:22:25.984Z,4.20
2023-01-19T21:24:56.774Z,4.03
2023-01-19T21:27:27.099Z,3.70
2023-01-19T21:29:58.708Z,3.37
2023-01-19T21:32:28.728Z,3.52
2023-01-19T21:35:00.566Z,3.97
2023-01-19T21:37:32.746Z,3.84
2023-01-19T21:40:02.818Z,3.85
2023-01-19T21:42:33.203Z,3.99
2023-01-19T21:45:03.201Z,3.77
2023-01-19T21:47:33.048Z,3.85
2023-01-19T21:50:04.673Z,3.49
2023-01-19T21:52:34.827Z,3.29
2023-01-19T21:55:05.212Z,2.94
2023-01-19T21:57:35.834Z,3.13
2023-01-19T22:00:07.437Z,3.24
2023-01-19T22:02:39.452Z,3.73
2023-01-19T22:05:14.156Z,3.72
2023-01-19T22:07:44.687Z,3.84
2023-01-19T22:10:15.394Z,3.58
2023-01-19T22:12:45.553Z,3.61
2023-01-19T22:15:15.487Z,3.23
2023-01-19T22:17:45.919Z,3.80
2023-01-19T22:20:18.823Z,3.55
2023-01-19T22:22:48.898Z,3.79
2023-01-19T22:25:22.280Z,3.38
2023-01-19T22:27:52.568Z,3.63
2023-01-19T22:30:23.343Z,3.65
2023-01-19T22:32:53.519Z,3.72
2023-01-19T22:35:25.131Z,3.87
2023-01-19T22:37:55.301Z,3.72
2023-01-19T22:40:25.608Z,3.56
2023-01-19T22:42:56.107Z,3.76
2023-01-19T22:45:26.277Z,3.84
2023-01-19T22:47:56.404Z,3.76
2023-01-19T22:50:29.308Z,3.94
2023-01-19T22:52:59.449Z,3.47
2023-01-19T22:55:32.579Z,3.67
2023-01-19T22:58:02.373Z,3.68
2023-01-19T23:00:32.298Z,3.49
2023-01-19T23:03:03.049Z,3.41
2023-01-19T23:05:37.779Z,3.27
2023-01-19T23:08:08.653Z,3.25
2023-01-19T23:10:41.852Z,2.96
2023-01-19T23:13:11.858Z,3.16
2023-01-19T23:15:42.061Z,3.14
2023-01-19T23:18:12.408Z,3.04
2023-01-19T23:20:43.880Z,3.05
2023-01-19T23:23:13.665Z,2.87
2023-01-19T23:25:44.308Z,2.65
2023-01-19T23:28:14.214Z,3.31
2023-01-19T23:30:44.578Z,3.20
2023-01-19T23:33:16.035Z,3.22
2023-01-19T23:35:48.419Z,3.50
2023-01-19T23:38:20.499Z,3.34
2023-01-19T23:40:52.136Z,3.31
2023-01-19T23:43:22.502Z,3.58
2023-01-19T23:45:53.618Z,3.06
2023-01-19T23:48:24.382Z,2.76
2023-01-19T23:50:56.121Z,2.89
2023-01-19T23:53:26.493Z,2.97
2023-01-19T23:55:57.144Z,3.20
2023-01-19T23:58:27.350Z,3.22
